首页
METAR-TAF:

METAR-TAF

机场 :

海伦娜区域机场

赫勒拿, 蒙大拿州, 美国

纬度: 46-36-20N, 经度: 111-57-49W, 海拔: 1180米

当前天气观测

该预报发布于23分钟前的22:53 UTC
风速14节,风向,有时为21节阵风
温度 3°C
湿度 56%
气压 1026 hPa
能見度: 16.1公里
散云层高于3000英尺
多云层高于4400英尺
阴天层高于9000英尺

METAR: KHLN 172253Z 01014G21KT 10SM SCT030 BKN044 OVC090 03/M05 A3030 RMK AO2 SLP305 T00281050

时间: 17:16 (23:16 UTC)

预报

该预报发布于5小时和37分钟前的17:39 UTC
预报有效从17日的 18点(UTC)到 18日的 18点(UTC)
风速12节,风向,有时为20节阵风
能見度: 10公里
散云层高于2500英尺
多云层高于3500英尺
从 18日的 0200点(UTC)
风速8节,风向北转西北
能見度: 10公里
少量云层高于5000英尺
散云层高于12000英尺

TAF: KHLN 171739Z 1718/1818 35012G20KT P6SM SCT025 BKN035 FM180200 33008KT P6SM FEW050 SCT120

超过4000个机场的气象观测和天气预报(METAR&TAF报告)。

可查询的气象台以黄色和红色小点在地图上表示。

将鼠标移到小点上方,可查看气象台名称。

然后点击查看天气观测和预报。

如需切换地图:点击带黑十字的绿色按钮放大地图;点击带横线的绿色按钮缩小地图;或者点击绿色箭头查看邻近地区的地图。


METAR-TAF: